CPX233 Details

Departure: Sacramento International Airport (KSMF)
Arrival: Phoenix Sky Harbor International Airport (KPHX)
Route: SCTWN2 SCTWN DOSCO OAL LIDAT BTY J92 BLD PRFUM WOTRO BRUSR1


Current Weather Information
KSMF 212253Z 23015G20KT 10SM FEW050 FEW090 20/07 A2978 RMK AO2 SLP084 T02000072
KPHX 212251Z 24020G29KT 10SM FEW080 FEW250 28/M02 A2961 RMK AO2 PK WND 23029/2246 SLP012 T02781017